This is the latest recevied weather packets stored in our database for station/object OH1KK. If no packets are shown the sender has not sent any weather packets the latest 10 day(s).
| Time | Temp. | Humidity | Pressure | Rain* | Wind** | Luminosity | Snow |
|---|---|---|---|---|---|---|---|
| 1778120361 | -2.22° C | 84% | 1007 hPa | 0 mm | - | - | - |
| 1778119446 | -2.22° C | 85% | 1006.8 hPa | 0 mm | - | - | - |
| 1778117676 | -1.67° C | 81% | 1006.8 hPa | 0 mm | - | - | - |
| 1778115846 | -1.67° C | 81% | 1006.7 hPa | 0 mm | - | - | - |
| 1778114992 | -1.11° C | 80% | 1006.7 hPa | 0 mm | - | - | - |
| 1778114077 | -1.11° C | 81% | 1006.7 hPa | 0 mm | - | - | - |
| 1778113162 | -1.11° C | 81% | 1006.5 hPa | 0 mm | - | - | - |
| 1778112246 | -0.56° C | 79% | 1006.3 hPa | 0 mm | - | - | - |
| 1778111392 | -0.56° C | 79% | 1006.5 hPa | 0 mm | - | - | - |
| 1778110476 | -1.11° C | 80% | 1006.1 hPa | 0 mm | - | - | - |
| 1778109561 | -1.11° C | 82% | 1006.2 hPa | 0 mm | - | - | - |
| 1778108646 | -0.56° C | 81% | 1006.1 hPa | 0 mm | - | - | - |
| 1778107791 | -0.56° C | 80% | 1005.9 hPa | 0 mm | - | - | - |
| 1778106876 | -0.56° C | 79% | 1005.9 hPa | 0 mm | - | - | - |
| 1778105961 | -0.56° C | 80% | 1005.9 hPa | 0 mm | - | - | - |
| 1778105046 | -0.56° C | 79% | 1005.8 hPa | 0 mm | - | - | - |
| 1778104191 | 0° C | 78% | 1005.7 hPa | 0 mm | - | - | - |
| 1778103276 | 0° C | 76% | 1005.7 hPa | 0 mm | - | - | - |
| 1778102361 | 0° C | 77% | 1005.4 hPa | 0 mm | - | - | - |
| 1778101446 | 0° C | 76% | 1005.5 hPa | 0 mm | - | - | - |
| 1778100592 | 0.56° C | 74% | 1005.4 hPa | 0 mm | - | - | - |
| 1778099677 | 0.56° C | 74% | 1005.6 hPa | 0 mm | - | - | - |
| 1778098762 | 1.11° C | 72% | 1005.5 hPa | 0 mm | - | - | - |
| 1778097846 | 1.67° C | 70% | 1005.3 hPa | 0 mm | - | - | - |
| 1778096993 | 2.22° C | 68% | 1005.4 hPa | 0 mm | - | - | - |
* Rain latest hour (hover to see other rain measurements)
** Current wind speed in m/s (hover to see current wind gust speed)